Wednesday, February 20, 2019, 2:04 PM CST
Back to Local

KMDW, Chicago Midway Airport

Location: Chicago, IL, United States Lat: 41.783
Local Time: 2:04 PM CST (20:04 GMT) Lon: -87.75
Time Zone: US/Central Elev: 620 ft

Show me the last for .
Show Decoded

2019-02-20 12:53 METAR KMDW 201853Z 16009KT 1 1/2SM -DZ BR OVC005 01/01 A2972 RMK AO2 SLP074
                 P0001 T00110006 =
2019-02-20 12:11 METAR KMDW 201811Z 14010KT 1SM R31C/4500V5500FT -DZ BR OVC006 01/00 A2975 RMK
                 AO2 P0000 T00060000 =
2019-02-20 11:53 METAR KMDW 201753Z COR 15010KT 1 3/4SM -DZ BR OVC006 01/00 A2976 RMK AO2
                 DZB46FZDZB02E24 SLP089 4/002 P0000 60002 I1000 I6004 T00060000 10006 21017 58040
                 =
2019-02-20 11:46 METAR KMDW 201746Z 14012G18KT 1 3/4SM -DZ BR OVC006 01/M01 A2977 RMK AO2
                 DZB46FZDZB02E24 P0000 I1000 T00061006 =
2019-02-20 11:24 METAR KMDW 201724Z 13010G20KT 2 1/2SM BR OVC006 01/M01 A2977 RMK AO2 FZDZB02E24
                 PRESFR P0000 I1000 T00061006 =
2019-02-20 11:04 METAR KMDW 201704Z 13013KT 1 3/4SM -FZDZ BR OVC006 00/M01 A2979 RMK AO2 FZDZB02
                 P0000 I1000 T00001006 =
2019-02-20 10:53 METAR KMDW 201653Z 13012KT 1 3/4SM BR OVC006 00/M01 A2979 RMK AO2 FZRAB01E41
                 SLP101 P0000 I1000 T00001011 =
2019-02-20 10:42 METAR KMDW 201642Z 12014KT 1 1/2SM BR OVC007 00/M01 A2980 RMK AO2 FZRAB01E41
                 P0000 I1000 T00001011 =
2019-02-20 10:21 METAR KMDW 201621Z 12014G22KT 1 1/2SM -FZRA BR OVC007 00/M01 A2983 RMK AO2
                 FZRAB01 P0000 I1000 T00001011 =
2019-02-20 10:03 METAR KMDW 201603Z 12017G23KT 2SM -FZRA BR OVC006 00/M01 A2984 RMK AO2 FZRAB01
                 PRESFR P0000 I1000 T00001011 =
2019-02-20 09:53 METAR KMDW 201553Z 12013G21KT 1 3/4SM BR OVC006 M01/M01 A2985 RMK AO2
                 FZRAE17FZDZB17E42SNE17 SLP121 P0000 I1000 T10061011 =
2019-02-20 09:43 METAR KMDW 201543Z 12011KT 1 1/2SM BR OVC006 M01/M01 A2987 RMK AO2
                 FZRAE17FZDZB17E42SNE17 P0000 I1000 T10061011 =
2019-02-20 09:18 METAR KMDW 201518Z 11014KT 1 1/2SM -FZDZ BR OVC006 M01/M02 A2988 RMK AO2
                 FZRAE17FZDZB17SNE17 P0000 I1000 T10061017 =
2019-02-20 08:53 METAR KMDW 201453Z 10015G24KT 1 1/4SM -FZRASN BR OVC006 M01/M02 A2988 RMK AO2
                 FZDZE07FZRAB07SNB07 SLP131 P0000 60002 I1004 I3004 T10111022 58030 =
2019-02-20 08:08 METAR KMDW 201408Z 10016G22KT 1SM R31C/5500V6000FT -FZRASN BR OVC006 M01/M02
                 A2992 RMK AO2 FZDZE07FZRAB07SNB07 P0000 I1004 T10061017 =
2019-02-20 07:53 METAR KMDW 201353Z 10011G23KT 1SM R31C/5500V6000FT -FZDZ BR OVC007 M01/M02 A2993
                 RMK AO2 FZDZB50SNE50 SLP147 P0001 I1000 T10061017 =
2019-02-20 07:51 METAR KMDW 201351Z 10012G23KT 1SM R31C/5500V6000FT -FZDZ BR OVC007 M01/M02 A2993
                 RMK AO2 FZDZB50SNE50 P0001 I1000 =
2019-02-20 07:17 METAR KMDW 201317Z 10015G22KT 1 1/2SM -SN BR OVC007 M02/M03 A2996 RMK AO2 P0000
                 T10171028 =
2019-02-20 06:53 METAR KMDW 201253Z 10013G22KT 2 1/2SM -SN BR BKN009 OVC016 M02/M03 A2997 RMK AO2
                 PK WND 08026/1237 SLP162 P0001 T10171028 =
2019-02-20 06:14 METAR KMDW 201214Z 09013KT 2SM -SN BR BKN009 BKN016 OVC028 M02/M03 A3001 RMK AO2
                 P0001 T10171033 =
2019-02-20 06:02 METAR KMDW 201202Z 09011KT 1 1/4SM -SN BR BKN007 BKN014 OVC024 M02/M03 A3001 RMK
                 AO2 P0000 T10171033 =
2019-02-20 05:53 METAR KMDW 201153Z 09012KT 1 1/4SM -SN BR BKN010 OVC018 M02/M03 A3002 RMK AO2
                 SLP178 4/002 P0001 60001 70001 T10171033 11011 21017 58046 =
2019-02-20 05:29 METAR KMDW 201129Z 10011KT 1 3/4SM -SN BR BKN010 BKN021 OVC029 M02/M03 A3005 RMK
                 AO2 P0000 T10171033 =
2019-02-20 05:16 METAR KMDW 201116Z 10010KT 2 1/2SM -SN BR BKN010 BKN020 OVC033 M02/M03 A3006 RMK
                 AO2 P0000 T10171033 =
2019-02-20 04:53 METAR KMDW 201053Z 09010KT 2SM -SN BR FEW008 OVC022 M02/M03 A3007 RMK AO2 SNB09
                 SLP196 P0000 T10171033 =
2019-02-20 04:30 METAR KMDW 201030Z 10010G19KT 1 1/2SM -SN BR OVC028 M02/M04 A3009 RMK AO2 SNB09
                 PRESFR P0000 T10171044 =
2019-02-20 04:21 METAR KMDW 201021Z 10012KT 2 1/2SM -SN BR OVC039 M01/M05 A3010 RMK AO2 SNB09
                 P0000 T10111050 =
2019-02-20 03:53 METAR KMDW 200953Z 09011KT 9SM OVC060 M01/M05 A3012 RMK AO2 SLP210 T10111050 =
2019-02-20 02:53 METAR KMDW 200853Z 09011KT 9SM OVC100 M01/M06 A3016 RMK AO2 SLP225 T10111056
                 58047 =
2019-02-20 01:53 METAR KMDW 200753Z 10013KT 9SM OVC080 M01/M06 A3022 RMK AO2 SLP245 T10111061 =
2019-02-20 00:53 METAR KMDW 200653Z 09010KT 10SM OVC090 M01/M06 A3026 RMK AO2 SLP260 T10111061 =
2019-02-19 23:53 METAR KMDW 200553Z 10007KT 10SM BKN080 OVC095 M01/M07 A3030 RMK AO2 SLP274 4/002
                 T10111067 11006 21011 400061100 58033 =
2019-02-19 22:53 METAR KMDW 200453Z 10009KT 10SM OVC090 M01/M07 A3035 RMK AO2 SLP290 T10111067 =
2019-02-19 21:53 METAR KMDW 200353Z 10011KT 10SM OVC095 M01/M07 A3039 RMK AO2 SLP304 T10061067 =
2019-02-19 20:53 METAR KMDW 200253Z 10010KT 10SM OVC095 M01/M06 A3040 RMK AO2 SLP309 T10061061
                 56021 =
2019-02-19 19:53 METAR KMDW 200153Z 09009KT 10SM FEW020 OVC110 M01/M06 A3041 RMK AO2 SLP315
                 T10061056 =
2019-02-19 18:53 METAR KMDW 200053Z 09009KT 10SM BKN130 OVC250 M01/M06 A3044 RMK AO2 SLP325
                 T10111056 =
2019-02-19 17:53 METAR KMDW 192353Z 09009KT 10SM FEW029 OVC250 M01/M06 A3046 RMK AO2 SLP333 4/002
                 T10111061 10006 21011 58011 =
2019-02-19 16:53 METAR KMDW 192253Z 10009KT 10SM FEW029 BKN250 M01/M07 A3048 RMK AO2 SLP336
                 T10061067 =
2019-02-19 15:53 METAR KMDW 192153Z 09008KT 10SM SCT029 BKN250 M01/M06 A3049 RMK AO2 SLP341
                 T10061061 =
2019-02-19 14:53 METAR KMDW 192053Z 13004KT 10SM BKN030 BKN250 00/M07 A3050 RMK AO2 SLP343
                 T00001072 56031 =

Support USWX by starting your Amazon purchase here.